createdAt,value
2019-03-24T00:00:27.908Z,4.77
2019-03-24T00:02:56.308Z,3.70
2019-03-24T00:05:24.650Z,4.67
2019-03-24T00:07:52.994Z,3.83
2019-03-24T00:10:21.363Z,5.23
2019-03-24T00:12:49.705Z,5.07
2019-03-24T00:15:26.185Z,6.37
2019-03-24T00:17:48.261Z,3.07
2019-03-24T00:20:16.610Z,4.40
2019-03-24T00:22:45.002Z,6.83
2019-03-24T00:25:13.440Z,6.20
2019-03-24T00:27:41.757Z,3.67
2019-03-24T00:30:12.494Z,3.60
2019-03-24T00:32:40.872Z,4.37
2019-03-24T00:35:09.319Z,5.93
2019-03-24T00:37:37.732Z,4.83
2019-03-24T00:40:06.535Z,5.03
2019-03-24T00:42:34.861Z,5.33
2019-03-24T00:45:03.435Z,3.60
2019-03-24T00:47:31.776Z,4.33
2019-03-24T00:50:00.192Z,5.30
2019-03-24T00:52:28.777Z,3.20
2019-03-24T00:54:57.082Z,8.77
2019-03-24T00:57:25.435Z,4.30
2019-03-24T00:59:53.870Z,6.30
2019-03-24T01:02:22.189Z,6.40
2019-03-24T01:04:50.506Z,5.53
2019-03-24T01:07:18.886Z,3.30
2019-03-24T01:09:47.250Z,4.80
2019-03-24T01:12:15.605Z,8.93
2019-03-24T01:14:44.016Z,5.53
2019-03-24T01:17:12.364Z,3.57
2019-03-24T01:19:40.671Z,4.77
2019-03-24T01:22:09.049Z,3.97
2019-03-24T01:24:37.385Z,5.03
2019-03-24T01:27:05.683Z,7.10
2019-03-24T01:29:34.098Z,4.07
2019-03-24T01:32:02.469Z,6.30
2019-03-24T01:34:30.787Z,3.07
2019-03-24T01:36:59.174Z,6.13
2019-03-24T01:39:27.522Z,2.40
2019-03-24T01:41:55.863Z,5.03
2019-03-24T01:44:24.240Z,3.83
2019-03-24T01:46:52.581Z,7.27
2019-03-24T01:49:20.977Z,5.83
2019-03-24T01:51:49.353Z,4.87
2019-03-24T01:54:17.793Z,5.40
2019-03-24T01:56:46.200Z,5.73
2019-03-24T01:59:14.547Z,3.07
2019-03-24T02:01:42.847Z,5.53
2019-03-24T02:04:11.278Z,5.47
2019-03-24T02:06:39.628Z,7.10
2019-03-24T02:09:09.351Z,3.90
2019-03-24T02:11:37.728Z,3.70
2019-03-24T02:14:06.040Z,5.43
2019-03-24T02:16:34.439Z,5.83
2019-03-24T02:19:02.754Z,5.77
2019-03-24T02:21:31.488Z,5.50
2019-03-24T02:23:59.871Z,5.20
2019-03-24T02:26:28.194Z,4.70
2019-03-24T02:28:56.494Z,3.83
2019-03-24T02:31:24.904Z,6.50
2019-03-24T02:33:53.247Z,5.60
2019-03-24T02:36:21.572Z,3.57
2019-03-24T02:38:50.156Z,3.23
2019-03-24T02:41:18.503Z,4.90
2019-03-24T02:43:46.816Z,4.07
2019-03-24T02:46:24.279Z,4.70
2019-03-24T02:48:45.338Z,4.43
2019-03-24T02:51:13.664Z,6.17
2019-03-24T02:53:42.102Z,5.67
2019-03-24T02:56:10.504Z,5.10
2019-03-24T02:58:38.841Z,4.77
2019-03-24T03:01:07.235Z,3.83
2019-03-24T03:03:35.599Z,7.00
2019-03-24T03:06:04.108Z,6.23
2019-03-24T03:08:32.902Z,2.83
2019-03-24T03:11:01.251Z,4.30
2019-03-24T03:13:29.585Z,5.47
2019-03-24T03:15:57.992Z,3.97
2019-03-24T03:18:26.315Z,5.33
2019-03-24T03:20:54.668Z,4.60
2019-03-24T03:23:23.010Z,3.13
2019-03-24T03:25:51.373Z,4.23
2019-03-24T03:28:19.721Z,5.13
2019-03-24T03:30:48.074Z,4.13
2019-03-24T03:33:16.537Z,3.30
2019-03-24T03:35:45.007Z,6.50
2019-03-24T03:38:13.334Z,4.80
2019-03-24T03:40:41.670Z,7.77
2019-03-24T03:43:10.031Z,5.30
2019-03-24T03:45:39.485Z,4.40
2019-03-24T03:48:07.952Z,5.67
2019-03-24T03:50:36.299Z,4.87
2019-03-24T03:53:04.755Z,3.73
2019-03-24T03:55:33.154Z,4.37
2019-03-24T03:58:01.535Z,4.90
2019-03-24T04:00:33.913Z,5.33
2019-03-24T04:03:02.605Z,5.73
2019-03-24T04:05:31.016Z,4.37
2019-03-24T04:07:59.784Z,5.23
2019-03-24T04:10:28.216Z,6.07
2019-03-24T04:12:56.681Z,4.67
2019-03-24T04:15:25.064Z,4.43
2019-03-24T04:17:53.454Z,4.17
2019-03-24T04:20:21.772Z,4.47
2019-03-24T04:22:50.114Z,4.53
2019-03-24T04:25:18.499Z,4.30
2019-03-24T04:27:46.837Z,7.40
2019-03-24T04:30:15.453Z,4.07
2019-03-24T04:32:43.804Z,5.20
2019-03-24T04:35:12.299Z,8.40
2019-03-24T04:37:40.765Z,6.70
2019-03-24T04:40:09.267Z,4.60
2019-03-24T04:42:37.589Z,6.83
2019-03-24T04:45:06.462Z,3.50
2019-03-24T04:47:34.806Z,4.50
2019-03-24T04:50:03.539Z,3.87
2019-03-24T04:52:31.854Z,4.30
2019-03-24T04:55:00.334Z,6.10
2019-03-24T04:57:28.759Z,6.50
2019-03-24T04:59:57.107Z,5.40
2019-03-24T05:02:25.427Z,4.80
2019-03-24T05:04:53.827Z,5.87
2019-03-24T05:07:22.226Z,4.47
2019-03-24T05:09:50.750Z,7.33
2019-03-24T05:12:19.196Z,6.43
2019-03-24T05:14:47.528Z,7.10
2019-03-24T05:17:15.911Z,7.03
2019-03-24T05:19:44.243Z,2.57
2019-03-24T05:22:12.568Z,6.03
2019-03-24T05:24:40.879Z,3.20
2019-03-24T05:27:09.254Z,4.83
2019-03-24T05:29:37.603Z,5.27
2019-03-24T05:32:05.954Z,5.63
2019-03-24T05:34:34.346Z,6.87
2019-03-24T05:37:02.691Z,7.13
2019-03-24T05:39:31.039Z,4.90
2019-03-24T05:41:59.415Z,6.03
2019-03-24T05:44:27.736Z,3.70
2019-03-24T05:46:56.066Z,5.17
2019-03-24T05:49:24.454Z,3.83
2019-03-24T05:51:52.776Z,6.13
2019-03-24T05:54:21.098Z,6.30
2019-03-24T05:56:49.516Z,3.23
2019-03-24T05:59:17.850Z,4.70
2019-03-24T06:01:46.170Z,5.73
2019-03-24T06:04:14.593Z,4.70
2019-03-24T06:06:42.903Z,5.57
2019-03-24T06:09:11.292Z,4.33
2019-03-24T06:11:39.710Z,3.33
2019-03-24T06:14:08.022Z,6.80
2019-03-24T06:16:37.951Z,3.20
2019-03-24T06:19:06.498Z,6.57
2019-03-24T06:21:34.858Z,5.67
2019-03-24T06:24:03.190Z,5.33
2019-03-24T06:26:31.575Z,6.70
2019-03-24T06:28:59.912Z,3.47
2019-03-24T06:31:28.263Z,4.50
2019-03-24T06:33:56.663Z,4.53
2019-03-24T06:36:25.009Z,6.53
2019-03-24T06:38:53.353Z,5.27
2019-03-24T06:41:21.700Z,6.00
2019-03-24T06:43:50.126Z,5.17
2019-03-24T06:46:18.448Z,6.50
2019-03-24T06:48:46.784Z,5.73
2019-03-24T06:51:15.219Z,4.17
2019-03-24T06:53:43.542Z,5.30
2019-03-24T06:56:11.839Z,5.27
2019-03-24T06:58:40.252Z,5.30
2019-03-24T07:01:08.588Z,4.73
2019-03-24T07:03:36.929Z,8.80
2019-03-24T07:06:05.336Z,3.73
2019-03-24T07:08:33.720Z,5.83
2019-03-24T07:11:02.043Z,4.07
2019-03-24T07:13:30.481Z,7.20
2019-03-24T07:15:59.177Z,5.20
2019-03-24T07:18:27.527Z,8.03
2019-03-24T07:20:55.838Z,6.73
2019-03-24T07:23:24.193Z,5.53
2019-03-24T07:25:52.579Z,11.80
2019-03-24T07:28:20.902Z,3.70
2019-03-24T07:30:49.256Z,5.97
2019-03-24T07:33:17.713Z,6.10
2019-03-24T07:35:46.044Z,5.27
2019-03-24T07:38:14.366Z,4.53
2019-03-24T07:40:42.790Z,6.27
2019-03-24T07:43:11.125Z,7.03
2019-03-24T07:45:39.498Z,5.33
2019-03-24T07:48:18.283Z,8.00
2019-03-24T07:50:38.052Z,7.67
2019-03-24T07:53:06.385Z,3.90
2019-03-24T07:55:34.728Z,6.87
2019-03-24T07:58:03.042Z,5.30
2019-03-24T08:00:33.202Z,7.80
2019-03-24T08:03:01.638Z,6.10
2019-03-24T08:05:29.980Z,6.50
2019-03-24T08:07:58.378Z,9.10
2019-03-24T08:10:26.713Z,4.23
2019-03-24T08:12:55.161Z,6.70
2019-03-24T08:15:23.765Z,6.40
2019-03-24T08:17:52.159Z,7.57
2019-03-24T08:20:20.503Z,6.43
2019-03-24T08:22:48.890Z,6.27
2019-03-24T08:25:19.073Z,8.20
2019-03-24T08:27:47.361Z,6.00
2019-03-24T08:30:23.442Z,7.70
2019-03-24T08:32:51.811Z,4.80
2019-03-24T08:35:20.206Z,5.33
2019-03-24T08:37:48.540Z,4.50
2019-03-24T08:40:16.872Z,5.20
2019-03-24T08:42:45.269Z,4.97
2019-03-24T08:45:18.311Z,5.73
2019-03-24T08:47:46.632Z,7.23
2019-03-24T08:50:15.049Z,6.80
2019-03-24T08:52:43.363Z,7.30
2019-03-24T08:55:11.731Z,8.27
2019-03-24T08:57:40.083Z,6.83
2019-03-24T09:00:08.420Z,10.23
2019-03-24T09:02:36.825Z,7.20
2019-03-24T09:05:05.261Z,4.47
2019-03-24T09:07:33.624Z,9.93
2019-03-24T09:10:02.100Z,7.97
2019-03-24T09:12:31.298Z,7.10
2019-03-24T09:14:59.784Z,10.43
2019-03-24T09:17:28.219Z,7.20
2019-03-24T09:19:56.565Z,6.73
2019-03-24T09:22:24.883Z,10.20
2019-03-24T09:24:53.284Z,7.33
2019-03-24T09:27:21.649Z,8.13
2019-03-24T09:29:49.969Z,7.03
2019-03-24T09:32:18.342Z,8.00
2019-03-24T09:34:46.714Z,7.77
2019-03-24T09:37:15.054Z,11.27
2019-03-24T09:39:43.425Z,7.43
2019-03-24T09:42:11.744Z,9.50
2019-03-24T09:44:40.140Z,5.17
2019-03-24T09:47:08.465Z,9.50
2019-03-24T09:49:36.819Z,8.40
2019-03-24T09:52:06.779Z,9.97
2019-03-24T09:54:35.092Z,6.90
2019-03-24T09:57:03.500Z,7.40
2019-03-24T09:59:31.939Z,10.87
2019-03-24T10:02:00.246Z,6.13
2019-03-24T10:04:28.602Z,7.50
2019-03-24T10:06:57.033Z,10.77
2019-03-24T10:09:25.379Z,11.50
2019-03-24T10:11:53.729Z,8.90
2019-03-24T10:14:22.345Z,14.87
2019-03-24T10:16:50.713Z,9.03
2019-03-24T10:19:20.353Z,9.17
2019-03-24T10:21:48.764Z,7.73
2019-03-24T10:24:17.172Z,8.30
2019-03-24T10:26:45.582Z,7.93
2019-03-24T10:29:13.951Z,6.13
2019-03-24T10:31:42.678Z,7.07
2019-03-24T10:34:11.236Z,8.20
2019-03-24T10:36:39.870Z,7.20
2019-03-24T10:39:08.230Z,8.13
2019-03-24T10:41:36.629Z,9.43
2019-03-24T10:44:04.961Z,4.63
2019-03-24T10:46:33.316Z,6.23
2019-03-24T10:49:01.733Z,6.70
2019-03-24T10:51:30.053Z,7.20
2019-03-24T10:53:58.389Z,10.87
2019-03-24T10:56:26.795Z,11.33
2019-03-24T10:58:55.153Z,9.40
2019-03-24T11:01:23.491Z,8.83
2019-03-24T11:03:51.859Z,9.77
2019-03-24T11:06:20.177Z,6.97
2019-03-24T11:08:48.515Z,8.77
2019-03-24T11:11:16.921Z,8.43
2019-03-24T11:13:45.252Z,12.23
2019-03-24T11:16:13.589Z,10.20
2019-03-24T11:18:41.995Z,9.33
2019-03-24T11:21:10.334Z,6.10
2019-03-24T11:23:38.667Z,12.43
2019-03-24T11:26:07.030Z,5.10
2019-03-24T11:28:35.388Z,10.23
2019-03-24T11:31:03.764Z,9.47
2019-03-24T11:33:32.090Z,10.23
2019-03-24T11:36:00.994Z,8.43
2019-03-24T11:38:29.307Z,8.20
2019-03-24T11:40:57.736Z,11.13
2019-03-24T11:43:26.079Z,9.10
2019-03-24T11:45:54.439Z,6.43
2019-03-24T11:48:22.895Z,7.90
2019-03-24T11:50:51.316Z,9.57
2019-03-24T11:53:19.675Z,9.13
2019-03-24T11:55:48.062Z,9.87
2019-03-24T11:58:16.358Z,11.67
2019-03-24T12:00:44.712Z,9.20
2019-03-24T12:03:13.099Z,9.20
2019-03-24T12:05:41.431Z,8.73
2019-03-24T12:08:09.797Z,9.03
2019-03-24T12:10:38.160Z,10.70
2019-03-24T12:13:06.497Z,7.07
2019-03-24T12:15:34.902Z,9.57
2019-03-24T12:18:03.491Z,10.07
2019-03-24T12:20:31.838Z,10.93
2019-03-24T12:23:00.240Z,9.10
2019-03-24T12:25:28.569Z,7.60
2019-03-24T12:27:56.919Z,9.00
2019-03-24T12:30:25.261Z,8.53
2019-03-24T12:32:53.629Z,10.60
2019-03-24T12:35:22.024Z,8.23
2019-03-24T12:37:50.339Z,12.93
2019-03-24T12:40:18.701Z,6.83
2019-03-24T12:42:47.120Z,7.00
2019-03-24T12:45:15.562Z,9.13
2019-03-24T12:47:43.918Z,6.90
2019-03-24T12:50:12.643Z,7.90
2019-03-24T12:52:40.973Z,7.27
2019-03-24T12:55:09.613Z,6.97
2019-03-24T12:57:38.017Z,9.17
2019-03-24T13:00:07.745Z,7.13
2019-03-24T13:02:36.097Z,8.37
2019-03-24T13:05:05.675Z,6.37
2019-03-24T13:07:34.002Z,4.97
2019-03-24T13:10:02.340Z,8.47
2019-03-24T13:12:30.724Z,7.07
2019-03-24T13:14:59.089Z,12.93
2019-03-24T13:17:27.451Z,7.33
2019-03-24T13:19:55.821Z,4.83
2019-03-24T13:22:24.157Z,9.60
2019-03-24T13:24:52.503Z,4.80
2019-03-24T13:27:20.905Z,6.37
2019-03-24T13:29:49.259Z,8.30
2019-03-24T13:32:17.606Z,9.20
2019-03-24T13:34:46.026Z,5.23
2019-03-24T13:37:14.364Z,10.00
2019-03-24T13:39:42.755Z,7.83
2019-03-24T13:42:11.213Z,8.00
2019-03-24T13:44:39.547Z,7.13
2019-03-24T13:47:07.928Z,8.43
2019-03-24T13:49:36.260Z,7.77
2019-03-24T13:52:04.669Z,6.40
2019-03-24T13:54:32.977Z,6.93
2019-03-24T13:57:01.338Z,14.73
2019-03-24T13:59:29.750Z,5.23
2019-03-24T14:01:58.209Z,5.97
2019-03-24T14:04:26.639Z,5.43
2019-03-24T14:06:55.061Z,4.27
2019-03-24T14:09:23.405Z,7.63
2019-03-24T14:11:51.837Z,3.93
2019-03-24T14:14:20.156Z,5.73
2019-03-24T14:16:48.565Z,3.80
2019-03-24T14:19:17.001Z,8.83
2019-03-24T14:21:45.362Z,6.10
2019-03-24T14:24:13.682Z,9.77
2019-03-24T14:26:42.094Z,4.37
2019-03-24T14:29:10.431Z,6.60
2019-03-24T14:31:38.792Z,5.20
2019-03-24T14:34:07.155Z,4.43
2019-03-24T14:36:35.477Z,7.63
2019-03-24T14:39:04.952Z,5.80
2019-03-24T14:41:33.310Z,6.50
2019-03-24T14:44:01.654Z,4.30
2019-03-24T14:46:30.066Z,7.30
2019-03-24T14:48:58.425Z,7.37
2019-03-24T14:51:26.753Z,6.80
2019-03-24T14:53:55.197Z,10.73
2019-03-24T14:56:23.540Z,5.50
2019-03-24T14:58:52.158Z,7.77
2019-03-24T15:01:20.717Z,9.10
2019-03-24T15:03:49.229Z,8.70
2019-03-24T15:06:17.792Z,8.67
2019-03-24T15:08:46.369Z,6.57
2019-03-24T15:11:14.713Z,5.50
2019-03-24T15:13:43.078Z,10.00
2019-03-24T15:16:11.462Z,9.40
2019-03-24T15:18:39.850Z,10.17
2019-03-24T15:21:08.297Z,9.00
2019-03-24T15:23:36.738Z,8.10
2019-03-24T15:26:05.201Z,10.33
2019-03-24T15:28:33.953Z,8.37
2019-03-24T15:31:02.366Z,11.00
2019-03-24T15:33:30.708Z,9.33
2019-03-24T15:35:59.028Z,8.47
2019-03-24T15:38:27.469Z,11.43
2019-03-24T15:40:55.783Z,9.57
2019-03-24T15:43:24.145Z,8.70
2019-03-24T15:45:52.972Z,10.80
2019-03-24T15:48:21.410Z,8.97
2019-03-24T15:50:50.160Z,7.87
2019-03-24T15:53:18.782Z,7.33
2019-03-24T15:55:47.346Z,8.80
2019-03-24T15:58:15.839Z,6.13
2019-03-24T16:00:48.625Z,7.13
2019-03-24T16:03:20.108Z,7.00
2019-03-24T16:05:48.912Z,6.77
2019-03-24T16:08:17.404Z,11.23
2019-03-24T16:10:46.022Z,8.77
2019-03-24T16:13:14.810Z,11.93
2019-03-24T16:15:43.198Z,9.90
2019-03-24T16:18:11.694Z,10.30
2019-03-24T16:20:40.096Z,10.73
2019-03-24T16:23:08.435Z,12.13
2019-03-24T16:25:36.882Z,11.60
2019-03-24T16:28:05.264Z,15.40
2019-03-24T16:30:33.709Z,7.67
2019-03-24T16:33:02.128Z,14.57
2019-03-24T16:35:30.513Z,9.00
2019-03-24T16:37:58.870Z,11.47
2019-03-24T16:40:27.214Z,11.93
2019-03-24T16:42:55.650Z,9.57
2019-03-24T16:45:24.072Z,9.30
2019-03-24T16:47:52.421Z,12.37
2019-03-24T16:50:20.799Z,11.93
2019-03-24T16:52:51.134Z,12.27
2019-03-24T16:55:19.429Z,12.67
2019-03-24T16:57:49.879Z,15.67
2019-03-24T17:00:18.426Z,7.97
2019-03-24T17:02:46.778Z,8.93
2019-03-24T17:05:15.207Z,13.70
2019-03-24T17:07:43.601Z,12.03
2019-03-24T17:10:11.956Z,15.43
2019-03-24T17:12:40.379Z,10.73
2019-03-24T17:15:09.385Z,14.87
2019-03-24T17:17:38.184Z,8.30
2019-03-24T17:20:06.569Z,9.97
2019-03-24T17:22:35.137Z,10.00
2019-03-24T17:25:03.621Z,10.47
2019-03-24T17:27:31.976Z,13.03
2019-03-24T17:30:06.038Z,10.90
2019-03-24T17:32:34.756Z,12.23
2019-03-24T17:35:03.228Z,11.83
2019-03-24T17:37:33.968Z,15.93
2019-03-24T17:40:02.592Z,9.40
2019-03-24T17:42:31.007Z,14.33
2019-03-24T17:44:59.352Z,13.70
2019-03-24T17:47:30.280Z,9.13
2019-03-24T17:49:58.714Z,10.07
2019-03-24T17:52:27.111Z,10.73
2019-03-24T17:54:55.458Z,13.07
2019-03-24T17:57:23.799Z,8.57
2019-03-24T17:59:52.158Z,10.63
2019-03-24T18:02:20.634Z,10.90
2019-03-24T18:04:49.862Z,9.07
2019-03-24T18:07:18.296Z,9.37
2019-03-24T18:09:47.959Z,20.83
2019-03-24T18:12:16.275Z,14.47
2019-03-24T18:14:44.614Z,18.70
2019-03-24T18:17:13.077Z,13.70
2019-03-24T18:19:41.479Z,11.63
2019-03-24T18:22:11.824Z,13.43
2019-03-24T18:24:40.268Z,11.23
2019-03-24T18:27:08.776Z,12.00
2019-03-24T18:29:37.852Z,11.37
2019-03-24T18:32:06.266Z,9.83
2019-03-24T18:34:34.676Z,15.60
2019-03-24T18:37:03.381Z,13.20
2019-03-24T18:39:31.767Z,12.63
2019-03-24T18:42:00.172Z,10.27
2019-03-24T18:44:28.733Z,10.43
2019-03-24T18:46:57.178Z,13.37
2019-03-24T18:49:25.648Z,19.27
2019-03-24T18:51:54.132Z,10.73
2019-03-24T18:54:22.615Z,11.57
2019-03-24T18:56:51.077Z,15.57
2019-03-24T18:59:19.532Z,15.50
2019-03-24T19:01:47.918Z,7.87
2019-03-24T19:04:16.264Z,10.57
2019-03-24T19:06:44.728Z,10.97
2019-03-24T19:09:13.039Z,18.60
2019-03-24T19:11:41.474Z,10.33
2019-03-24T19:14:09.808Z,10.87
2019-03-24T19:16:38.183Z,12.27
2019-03-24T19:19:06.545Z,7.27
2019-03-24T19:21:34.988Z,11.30
2019-03-24T19:24:03.545Z,14.10
2019-03-24T19:26:31.892Z,12.07
2019-03-24T19:29:00.223Z,11.67
2019-03-24T19:31:28.942Z,11.90
2019-03-24T19:33:57.315Z,11.93
2019-03-24T19:36:25.704Z,13.10
2019-03-24T19:38:54.503Z,18.77
2019-03-24T19:41:22.822Z,10.50
2019-03-24T19:43:51.237Z,11.83
2019-03-24T19:46:19.595Z,13.00
2019-03-24T19:48:47.974Z,12.17
2019-03-24T19:51:16.422Z,11.33
2019-03-24T19:53:44.817Z,17.27
2019-03-24T19:56:13.173Z,13.97
2019-03-24T19:58:41.568Z,15.20
2019-03-24T20:01:09.933Z,13.93
2019-03-24T20:03:38.319Z,15.13
2019-03-24T20:06:06.774Z,12.00
2019-03-24T20:08:35.140Z,20.23
2019-03-24T20:11:03.544Z,13.07
2019-03-24T20:13:32.019Z,13.87
2019-03-24T20:16:01.477Z,13.77
2019-03-24T20:18:29.860Z,12.30
2019-03-24T20:20:58.301Z,12.53
2019-03-24T20:23:26.682Z,16.37
2019-03-24T20:25:55.054Z,10.17
2019-03-24T20:28:23.443Z,13.63
2019-03-24T20:30:51.806Z,13.43
2019-03-24T20:33:20.161Z,12.03
2019-03-24T20:35:48.644Z,12.20
2019-03-24T20:38:17.018Z,16.10
2019-03-24T20:40:45.343Z,15.37
2019-03-24T20:43:13.778Z,16.20
2019-03-24T20:45:42.117Z,8.63
2019-03-24T20:48:10.466Z,9.10
2019-03-24T20:50:39.002Z,15.27
2019-03-24T20:53:17.666Z,22.53
2019-03-24T20:55:38.035Z,15.63
2019-03-24T20:58:06.532Z,12.47
2019-03-24T21:00:36.206Z,10.73
2019-03-24T21:03:06.341Z,15.20
2019-03-24T21:05:34.864Z,10.10
2019-03-24T21:08:03.384Z,12.80
2019-03-24T21:10:31.822Z,13.93
2019-03-24T21:13:00.157Z,14.53
2019-03-24T21:15:28.523Z,14.73
2019-03-24T21:17:56.952Z,13.43
2019-03-24T21:20:25.449Z,10.07
2019-03-24T21:22:53.848Z,12.53
2019-03-24T21:25:22.219Z,17.27
2019-03-24T21:27:50.549Z,11.70
2019-03-24T21:30:29.897Z,13.67
2019-03-24T21:32:58.248Z,12.37
2019-03-24T21:35:26.627Z,14.43
2019-03-24T21:37:54.974Z,14.37
2019-03-24T21:40:23.409Z,12.90
2019-03-24T21:42:51.761Z,13.93
2019-03-24T21:45:20.157Z,9.80
2019-03-24T21:47:48.512Z,13.57
2019-03-24T21:50:17.007Z,15.83
2019-03-24T21:52:45.452Z,10.90
2019-03-24T21:55:13.977Z,14.13
2019-03-24T21:57:42.572Z,11.03
2019-03-24T22:00:11.188Z,14.67
2019-03-24T22:02:39.551Z,12.07
2019-03-24T22:05:07.990Z,10.60
2019-03-24T22:07:38.454Z,12.80
2019-03-24T22:10:07.037Z,12.83
2019-03-24T22:12:35.388Z,12.23
2019-03-24T22:15:04.309Z,15.10
2019-03-24T22:17:32.644Z,14.97
2019-03-24T22:20:01.050Z,13.43
2019-03-24T22:22:29.438Z,18.43
2019-03-24T22:24:57.901Z,15.03
2019-03-24T22:27:26.378Z,13.77
2019-03-24T22:29:54.810Z,17.50
2019-03-24T22:32:23.266Z,11.57
2019-03-24T22:34:51.635Z,13.97
2019-03-24T22:37:20.288Z,14.60
2019-03-24T22:39:48.908Z,14.57
2019-03-24T22:42:17.250Z,18.43
2019-03-24T22:44:45.707Z,10.67
2019-03-24T22:47:14.030Z,12.73
2019-03-24T22:49:42.387Z,14.27
2019-03-24T22:52:10.935Z,12.03
2019-03-24T22:54:39.530Z,15.27
2019-03-24T22:57:07.938Z,12.63
2019-03-24T22:59:36.630Z,13.13
2019-03-24T23:02:05.156Z,14.47
2019-03-24T23:04:33.778Z,14.90
2019-03-24T23:07:02.693Z,14.07
2019-03-24T23:09:31.740Z,14.60
2019-03-24T23:12:00.258Z,11.50
2019-03-24T23:14:28.611Z,15.90
2019-03-24T23:16:56.953Z,13.33
2019-03-24T23:19:25.403Z,17.07
2019-03-24T23:21:53.864Z,13.83
2019-03-24T23:24:22.409Z,10.70
2019-03-24T23:26:50.905Z,19.83
2019-03-24T23:29:19.217Z,24.07
2019-03-24T23:31:47.610Z,14.20
2019-03-24T23:34:16.040Z,13.17
2019-03-24T23:36:44.448Z,18.13
2019-03-24T23:39:12.805Z,15.13
2019-03-24T23:41:41.323Z,13.33
2019-03-24T23:44:09.713Z,12.73
2019-03-24T23:46:38.154Z,15.63
2019-03-24T23:49:06.574Z,14.73
2019-03-24T23:51:34.943Z,14.07
2019-03-24T23:54:03.461Z,17.50
2019-03-24T23:56:31.951Z,15.93
2019-03-24T23:59:00.280Z,17.87
